Time;durP1;ratioP1;P1;durP2;ratioP2;P2;SDS_P1;SDS_P2;PMS_P1;PMS_P2;Temp;Humidity;BMP_temperature;BMP_pressure;BME280_temperature;BME280_humidity;BME280_pressure;Samples;Min_cycle;Max_cycle;Signal;HPM_P1;HPM_P2
2024/01/21 00:02:14;;;;;;;6.53;3.17;;;1.10;99.90;;;;;;4997048;28;20054;-65
2024/01/21 00:04:40;;;;;;;6.90;3.38;;;1.00;99.90;;;;;;4997440;28;20038;-66
2024/01/21 00:07:07;;;;;;;6.93;3.28;;;0.90;99.90;;;;;;5000753;28;20034;-66
2024/01/21 00:09:33;;;;;;;5.43;2.88;;;0.80;1.00;;;;;;5000719;28;20042;-66
2024/01/21 00:11:58;;;;;;;7.32;3.42;;;0.80;1.00;;;;;;4999979;28;20049;-66
2024/01/21 00:14:24;;;;;;;7.70;3.25;;;0.80;1.00;;;;;;5000638;28;20073;-66
2024/01/21 00:16:50;;;;;;;5.35;3.03;;;0.70;1.00;;;;;;5016154;28;20038;-67
2024/01/21 00:19:16;;;;;;;6.05;3.10;;;0.80;1.00;;;;;;5000527;28;20034;-66
2024/01/21 00:21:42;;;;;;;4.07;2.67;;;0.80;1.00;;;;;;5000583;28;20469;-66
2024/01/21 00:24:08;;;;;;;6.30;2.80;;;0.80;1.00;;;;;;5000447;28;20049;-65
2024/01/21 00:26:34;;;;;;;4.57;2.63;;;0.70;1.00;;;;;;5000474;28;20306;-66
2024/01/21 00:29:00;;;;;;;5.63;2.90;;;0.80;1.00;;;;;;5000460;28;20030;-64
2024/01/21 00:31:27;;;;;;;7.85;2.90;;;0.80;1.00;;;;;;5000216;28;20042;-66
2024/01/21 00:33:53;;;;;;;4.75;2.67;;;0.80;1.00;;;;;;5000380;28;20034;-67
2024/01/21 00:36:19;;;;;;;5.30;2.67;;;0.90;1.00;;;;;;4983341;28;20314;-66
2024/01/21 00:38:45;;;;;;;5.63;2.75;;;0.90;1.00;;;;;;5000199;28;20042;-65
2024/01/21 00:41:15;;;;;;;4.13;2.58;;;0.80;1.00;;;;;;5000093;28;20389;-67
2024/01/21 00:43:40;;;;;;;5.75;2.92;;;0.90;7.00;;;;;;5000116;28;20030;-66
2024/01/21 00:46:07;;;;;;;6.93;3.13;;;0.90;78.90;;;;;;5000179;28;20458;-67
2024/01/21 00:48:33;;;;;;;6.78;3.35;;;0.90;1.00;;;;;;4999235;28;20322;-64
2024/01/21 00:50:59;;;;;;;6.63;3.20;;;0.80;69.10;;;;;;5000245;28;20100;-67
2024/01/21 00:53:25;;;;;;;5.72;2.72;;;0.90;99.90;;;;;;4999204;28;20133;-64
2024/01/21 00:55:50;;;;;;;6.78;3.22;;;0.90;99.90;;;;;;4999470;28;20412;-66
2024/01/21 00:58:16;;;;;;;5.95;2.75;;;1.00;99.90;;;;;;4999816;28;20042;-66
2024/01/21 01:00:42;;;;;;;5.72;2.90;;;1.00;99.90;;;;;;4999125;28;20034;-66
2024/01/21 01:03:08;;;;;;;7.10;3.70;;;1.20;99.90;;;;;;4999811;28;20341;-67
2024/01/21 01:05:33;;;;;;;7.53;4.00;;;1.20;99.90;;;;;;5015298;28;20112;-66
2024/01/21 01:07:59;;;;;;;8.18;4.07;;;1.30;99.90;;;;;;4999650;28;20023;-66
2024/01/21 01:10:25;;;;;;;7.15;4.30;;;1.30;99.90;;;;;;4999674;28;20092;-65
2024/01/21 01:12:51;;;;;;;10.68;4.72;;;1.40;99.90;;;;;;4998863;28;20030;-65
2024/01/21 01:15:18;;;;;;;7.45;4.47;;;1.30;93.90;;;;;;4982771;28;20137;-65
2024/01/21 01:17:44;;;;;;;11.50;4.47;;;1.20;99.90;;;;;;4999387;28;20026;-66
2024/01/21 01:20:10;;;;;;;9.10;4.80;;;1.20;99.90;;;;;;4999800;28;20088;-65
2024/01/21 01:22:36;;;;;;;8.85;4.20;;;1.20;99.90;;;;;;4999352;28;20030;-66
2024/01/21 01:25:02;;;;;;;9.88;4.75;;;1.20;99.90;;;;;;4999385;28;20090;-65
2024/01/21 01:27:29;;;;;;;9.32;4.97;;;1.20;99.90;;;;;;4998708;28;20030;-66
2024/01/21 01:29:55;;;;;;;9.10;4.60;;;1.10;99.90;;;;;;4998547;28;20317;-64
2024/01/21 01:32:21;;;;;;;10.15;5.50;;;1.00;99.90;;;;;;4999053;28;20323;-65
2024/01/21 01:34:49;;;;;;;13.23;5.20;;;1.00;1.00;;;;;;4999238;28;20035;-65
2024/01/21 01:37:15;;;;;;;11.13;5.00;;;1.00;99.90;;;;;;4999112;28;20132;-66
2024/01/21 01:39:41;;;;;;;10.20;4.50;;;0.90;1.00;;;;;;4998975;28;20030;-65
2024/01/21 01:42:07;;;;;;;11.20;4.50;;;0.90;1.00;;;;;;4999016;28;20133;-65
2024/01/21 01:44:33;;;;;;;8.75;4.40;;;0.90;1.00;;;;;;4999016;28;20457;-66
2024/01/21 01:46:59;;;;;;;7.57;3.80;;;1.00;1.00;;;;;;4998921;28;20026;-66
2024/01/21 01:49:26;;;;;;;7.97;3.90;;;1.00;1.00;;;;;;4998884;28;20039;-66
2024/01/21 01:51:54;;;;;;;8.68;4.07;;;1.10;1.00;;;;;;4998926;28;20049;-65
2024/01/21 01:54:23;;;;;;;8.75;4.20;;;1.10;1.00;;;;;;4982025;28;20034;-65
2024/01/21 01:56:49;;;;;;;7.80;3.60;;;1.20;1.00;;;;;;4998934;28;20390;-66
2024/01/21 01:59:18;;;;;;;8.75;4.47;;;1.20;1.00;;;;;;4998561;28;20041;-65
2024/01/21 02:01:46;;;;;;;6.57;3.35;;;1.30;99.90;;;;;;5014239;28;20046;-65
2024/01/21 02:04:11;;;;;;;8.00;3.95;;;1.30;99.90;;;;;;4998584;28;20023;-65
2024/01/21 02:06:40;;;;;;;6.78;4.10;;;1.30;99.90;;;;;;4998905;28;20034;-65
2024/01/21 02:09:06;;;;;;;8.23;3.88;;;1.30;99.90;;;;;;4998504;28;20297;-65
2024/01/21 02:11:32;;;;;;;6.20;3.67;;;1.30;1.00;;;;;;4997864;28;20100;-64
2024/01/21 02:13:58;;;;;;;6.45;3.95;;;1.30;1.00;;;;;;4997613;28;20030;-65
2024/01/21 02:16:24;;;;;;;6.53;3.55;;;1.20;1.00;;;;;;4998475;28;20030;-65
2024/01/21 02:18:50;;;;;;;7.03;3.75;;;1.30;1.00;;;;;;4998319;28;20030;-66
2024/01/21 02:21:16;;;;;;;5.10;3.38;;;1.20;1.00;;;;;;4998381;28;20030;-66
2024/01/21 02:23:45;;;;;;;8.10;3.70;;;1.20;1.00;;;;;;4998219;28;20030;-66
2024/01/21 02:26:11;;;;;;;8.88;3.92;;;1.20;1.00;;;;;;4998238;28;20302;-66
2024/01/21 02:28:36;;;;;;;8.00;4.22;;;1.20;1.00;;;;;;4997984;28;20031;-66
2024/01/21 02:31:02;;;;;;;6.85;3.40;;;1.20;1.00;;;;;;4998240;28;20353;-66
2024/01/21 02:33:28;;;;;;;9.50;3.47;;;1.30;1.00;;;;;;4998230;28;20030;-66
2024/01/21 02:35:54;;;;;;;6.15;3.30;;;1.30;1.00;;;;;;4981269;28;20054;-66
2024/01/21 02:38:20;;;;;;;5.50;3.28;;;1.30;1.00;;;;;;4998041;28;20093;-66
2024/01/21 02:40:46;;;;;;;6.63;3.65;;;1.30;1.00;;;;;;4998048;28;20034;-66
2024/01/21 02:43:12;;;;;;;7.93;3.45;;;1.30;1.00;;;;;;4998149;28;20402;-66
2024/01/21 02:45:37;;;;;;;6.85;3.67;;;1.30;1.00;;;;;;4997916;28;20041;-65
2024/01/21 02:48:04;;;;;;;5.63;3.40;;;1.30;1.00;;;;;;4998047;28;20027;-66
2024/01/21 02:50:30;;;;;;;5.13;2.97;;;1.40;1.00;;;;;;4997834;28;20042;-66
2024/01/21 02:52:55;;;;;;;6.05;3.65;;;1.40;99.90;;;;;;4997738;28;20034;-66
2024/01/21 02:55:21;;;;;;;6.50;3.60;;;1.40;99.90;;;;;;4997846;28;20030;-65
2024/01/21 02:57:47;;;;;;;6.43;3.58;;;1.40;99.90;;;;;;4997737;28;20030;-66
2024/01/21 03:00:13;;;;;;;5.75;3.33;;;1.50;99.90;;;;;;4997677;28;20088;-66
2024/01/21 03:02:39;;;;;;;7.53;3.33;;;1.50;99.90;;;;;;4997007;28;20347;-65
2024/01/21 03:05:05;;;;;;;7.22;3.85;;;1.50;99.90;;;;;;4997884;28;20120;-67
2024/01/21 03:07:31;;;;;;;5.85;3.53;;;1.60;99.90;;;;;;4997060;28;20073;-68
2024/01/21 03:09:56;;;;;;;6.20;3.65;;;1.60;1.00;;;;;;4997574;28;20061;-65
2024/01/21 03:12:22;;;;;;;7.75;3.22;;;1.70;1.00;;;;;;4997506;28;20125;-65
2024/01/21 03:14:48;;;;;;;5.47;3.42;;;1.80;1.00;;;;;;4996672;28;20389;-66
2024/01/21 03:17:15;;;;;;;5.07;2.92;;;1.90;1.00;;;;;;4997490;28;20039;-65
2024/01/21 03:19:41;;;;;;;5.75;3.47;;;1.90;1.00;;;;;;4997434;28;20030;-65
2024/01/21 03:22:06;;;;;;;5.20;2.90;;;1.90;99.90;;;;;;4997445;28;20023;-65
2024/01/21 03:24:32;;;;;;;4.38;2.95;;;2.00;99.90;;;;;;4997459;28;20037;-66
2024/01/21 03:26:58;;;;;;;5.88;3.13;;;2.00;99.90;;;;;;4997457;28;20041;-65
2024/01/21 03:29:24;;;;;;;5.18;3.35;;;2.00;99.90;;;;;;4996699;28;20088;-66
2024/01/21 03:31:49;;;;;;;5.80;3.30;;;2.10;83.10;;;;;;4997240;28;20133;-67
2024/01/21 03:34:16;;;;;;;4.72;3.28;;;2.10;1.00;;;;;;4997298;28;20038;-66
2024/01/21 03:36:42;;;;;;;7.35;3.20;;;2.20;1.00;;;;;;4997373;28;20053;-67
2024/01/21 03:39:07;;;;;;;5.70;2.97;;;2.30;99.90;;;;;;4997177;28;20401;-65
2024/01/21 03:41:33;;;;;;;5.53;3.20;;;2.40;1.00;;;;;;5000203;28;20088;-64
2024/01/21 03:43:59;;;;;;;6.30;3.42;;;2.40;1.00;;;;;;5001264;28;20026;-66
2024/01/21 03:46:25;;;;;;;5.32;3.17;;;2.40;99.90;;;;;;5001239;28;20034;-66
2024/01/21 03:48:51;;;;;;;6.78;3.25;;;2.50;1.00;;;;;;5001185;28;20310;-67
2024/01/21 03:51:17;;;;;;;4.07;2.95;;;2.50;99.90;;;;;;5000521;28;20046;-67
2024/01/21 03:53:42;;;;;;;4.70;2.78;;;2.50;99.90;;;;;;5000352;28;20405;-66
2024/01/21 03:56:15;;;;;;;5.68;2.85;;;2.60;1.00;;;;;;5001274;28;20034;-67
2024/01/21 03:58:44;;;;;;;3.95;2.80;;;2.60;1.00;;;;;;5000948;28;20113;-66
2024/01/21 04:01:11;;;;;;;4.45;3.17;;;2.60;67.50;;;;;;5000968;28;20034;-66
2024/01/21 04:03:37;;;;;;;8.02;3.28;;;2.60;99.90;;;;;;5000865;28;20294;-66
2024/01/21 04:06:03;;;;;;;6.35;3.40;;;2.60;1.00;;;;;;5000978;28;20023;-67
2024/01/21 04:08:29;;;;;;;6.32;3.30;;;2.60;1.00;;;;;;5001040;28;20034;-67
2024/01/21 04:10:55;;;;;;;5.13;3.20;;;2.70;1.00;;;;;;5000924;28;20042;-65
2024/01/21 04:13:21;;;;;;;5.38;3.05;;;2.70;1.00;;;;;;5000652;28;20041;-65
2024/01/21 04:15:47;;;;;;;5.43;3.40;;;2.70;1.00;;;;;;4999951;28;20088;-68
2024/01/21 04:18:13;;;;;;;5.45;2.97;;;2.60;99.90;;;;;;5000568;28;20046;-66
2024/01/21 04:20:38;;;;;;;5.72;2.85;;;2.60;1.60;;;;;;4999783;28;20072;-65
2024/01/21 04:23:04;;;;;;;5.43;3.58;;;2.60;99.90;;;;;;5000495;28;20054;-67
2024/01/21 04:25:30;;;;;;;4.93;3.25;;;2.60;99.90;;;;;;4999731;28;20096;-67
2024/01/21 04:27:56;;;;;;;7.00;3.55;;;2.50;1.00;;;;;;4999749;28;20089;-68
2024/01/21 04:30:21;;;;;;;6.40;3.60;;;2.60;1.00;;;;;;5000355;28;20097;-67
2024/01/21 04:32:47;;;;;;;7.15;3.83;;;2.50;1.00;;;;;;5000177;28;20054;-67
2024/01/21 04:35:13;;;;;;;6.55;3.58;;;2.50;1.00;;;;;;5000246;28;20452;-67
2024/01/21 04:37:39;;;;;;;5.90;3.28;;;2.50;1.00;;;;;;5000324;28;20082;-67
2024/01/21 04:40:05;;;;;;;6.28;3.70;;;2.50;99.90;;;;;;5000290;28;20123;-66
2024/01/21 04:42:31;;;;;;;7.53;3.97;;;2.50;99.90;;;;;;5000143;28;20038;-67
2024/01/21 04:44:57;;;;;;;7.72;3.97;;;2.50;1.00;;;;;;5000338;28;20310;-67
2024/01/21 04:47:23;;;;;;;8.02;3.40;;;2.50;1.00;;;;;;4999361;28;20066;-67
2024/01/21 04:49:49;;;;;;;6.47;4.05;;;2.50;1.00;;;;;;4999374;28;20469;-66
2024/01/21 04:52:15;;;;;;;5.28;3.72;;;2.50;1.00;;;;;;4999573;28;20057;-68
2024/01/21 04:54:40;;;;;;;6.63;4.03;;;2.40;1.00;;;;;;4999217;28;20125;-66
2024/01/21 04:57:07;;;;;;;7.60;3.60;;;2.40;1.00;;;;;;5000057;28;20031;-64
2024/01/21 04:59:32;;;;;;;6.65;4.13;;;2.40;1.00;;;;;;4999223;28;20049;-68
2024/01/21 05:01:58;;;;;;;6.28;3.80;;;2.40;97.50;;;;;;4999787;28;20034;-67
2024/01/21 05:04:24;;;;;;;7.22;3.80;;;2.40;99.90;;;;;;4999047;28;20033;-65
2024/01/21 05:06:49;;;;;;;6.28;3.83;;;2.50;61.10;;;;;;4999863;28;20112;-66
2024/01/21 05:09:15;;;;;;;8.73;3.45;;;2.50;99.90;;;;;;4999628;28;20130;-67
2024/01/21 05:11:41;;;;;;;5.85;3.70;;;2.50;99.90;;;;;;4999733;28;20398;-65
2024/01/21 05:14:07;;;;;;;8.07;4.20;;;2.40;99.90;;;;;;4999555;28;20037;-67
2024/01/21 05:16:32;;;;;;;7.25;3.95;;;2.40;1.00;;;;;;4998923;28;20428;-65
2024/01/21 05:18:58;;;;;;;6.03;3.55;;;2.40;99.90;;;;;;4999649;28;20341;-66
2024/01/21 05:21:24;;;;;;;6.68;3.92;;;2.40;1.00;;;;;;4998722;28;20404;-66
2024/01/21 05:23:53;;;;;;;4.60;3.08;;;2.40;99.90;;;;;;4982477;28;20042;-65
2024/01/21 05:26:19;;;;;;;6.78;4.05;;;2.40;94.00;;;;;;4999534;28;20041;-67
2024/01/21 05:28:46;;;;;;;6.63;3.95;;;2.40;99.90;;;;;;4999273;28;20042;-67
2024/01/21 05:31:12;;;;;;;7.97;3.75;;;2.40;99.90;;;;;;4999294;28;20046;-64
2024/01/21 05:33:40;;;;;;;5.63;3.70;;;2.40;1.00;;;;;;4999235;28;20417;-65
2024/01/21 05:36:06;;;;;;;7.60;3.83;;;2.40;1.00;;;;;;4999264;28;20171;-65
2024/01/21 05:38:32;;;;;;;7.45;4.35;;;2.40;97.00;;;;;;4999098;28;20113;-67
2024/01/21 05:40:58;;;;;;;6.97;4.00;;;2.40;97.70;;;;;;4999258;28;20122;-67
2024/01/21 05:43:24;;;;;;;6.57;3.70;;;2.30;99.90;;;;;;4982200;28;20027;-66
2024/01/21 05:45:50;;;;;;;5.43;3.53;;;2.40;99.90;;;;;;4998260;28;20053;-67
2024/01/21 05:48:15;;;;;;;6.95;3.58;;;2.40;1.00;;;;;;4998158;28;20061;-67
2024/01/21 05:50:41;;;;;;;5.75;3.72;;;2.40;99.90;;;;;;4998300;28;20042;-65
2024/01/21 05:53:07;;;;;;;6.30;3.60;;;2.40;1.00;;;;;;4999068;28;20418;-67
2024/01/21 05:55:33;;;;;;;5.07;3.78;;;2.40;99.90;;;;;;4998836;28;20042;-67
2024/01/21 05:57:59;;;;;;;6.65;3.55;;;2.40;1.00;;;;;;4998746;28;20053;-66
2024/01/21 06:00:25;;;;;;;5.85;3.70;;;2.40;1.00;;;;;;4998643;28;20041;-65
2024/01/21 06:02:51;;;;;;;7.15;3.83;;;2.50;1.00;;;;;;4997149;28;20093;-67
2024/01/21 06:05:17;;;;;;;6.35;3.85;;;2.50;1.00;;;;;;5014113;28;20038;-68
2024/01/21 06:07:44;;;;;;;6.15;3.67;;;2.50;1.00;;;;;;4998518;28;20034;-68
2024/01/21 06:10:11;;;;;;;7.35;4.30;;;2.50;1.00;;;;;;5014066;28;20045;-67
2024/01/21 06:12:37;;;;;;;4.47;3.28;;;2.50;1.00;;;;;;4981625;28;20113;-68
2024/01/21 06:15:03;;;;;;;4.97;3.25;;;2.50;1.00;;;;;;4998478;28;20145;-67
2024/01/21 06:17:29;;;;;;;5.47;3.47;;;2.50;1.00;;;;;;4998318;28;20075;-68
2024/01/21 06:19:56;;;;;;;5.57;3.17;;;2.60;99.90;;;;;;4998071;28;20072;-66
2024/01/21 06:22:22;;;;;;;6.75;3.47;;;2.60;49.60;;;;;;4998271;28;20409;-68
2024/01/21 06:24:48;;;;;;;5.28;3.20;;;2.60;1.00;;;;;;4998245;28;20034;-67
2024/01/21 06:27:14;;;;;;;5.72;3.55;;;2.60;1.00;;;;;;4998192;28;20263;-69
2024/01/21 06:29:44;;;;;;;5.78;3.97;;;2.60;1.00;;;;;;5013753;28;20129;-66
2024/01/21 06:32:09;;;;;;;6.15;3.60;;;2.60;1.00;;;;;;4997928;28;20054;-67
2024/01/21 06:34:35;;;;;;;5.30;3.40;;;2.60;1.00;;;;;;4997366;28;20125;-64
2024/01/21 06:37:01;;;;;;;7.03;3.60;;;2.50;99.90;;;;;;4997247;28;20129;-68
2024/01/21 06:39:27;;;;;;;5.68;3.78;;;2.50;1.00;;;;;;4980916;28;20350;-65
2024/01/21 06:41:53;;;;;;;5.10;3.45;;;2.50;99.90;;;;;;4998080;28;20114;-67
2024/01/21 06:44:18;;;;;;;5.22;3.30;;;2.40;1.00;;;;;;4997946;28;20034;-68
2024/01/21 06:46:44;;;;;;;7.30;4.05;;;2.40;1.00;;;;;;4997788;28;20034;-67
2024/01/21 06:49:10;;;;;;;5.18;3.45;;;2.40;1.00;;;;;;4997095;28;20049;-64
2024/01/21 06:51:54;;;;;;;5.22;3.63;;;2.40;1.00;;;;;;4997732;28;20130;-66
2024/01/21 06:54:21;;;;;;;5.28;3.88;;;2.40;1.00;;;;;;4997794;28;20034;-64
2024/01/21 06:56:47;;;;;;;6.03;3.40;;;2.40;1.00;;;;;;4997260;28;20029;-65
2024/01/21 06:59:12;;;;;;;6.00;3.60;;;2.40;1.00;;;;;;4997531;28;20322;-64
2024/01/21 07:01:38;;;;;;;5.07;3.55;;;2.40;1.00;;;;;;4997706;28;20045;-66
2024/01/21 07:04:04;;;;;;;6.55;3.15;;;2.50;1.00;;;;;;4997560;28;20092;-67
2024/01/21 07:06:30;;;;;;;5.15;3.63;;;2.40;1.00;;;;;;4996809;28;20073;-66
2024/01/21 07:08:55;;;;;;;4.93;3.30;;;2.50;1.00;;;;;;4996795;28;20417;-66
2024/01/21 07:11:21;;;;;;;5.05;3.60;;;2.40;27.20;;;;;;4997779;28;20041;-66
2024/01/21 07:13:47;;;;;;;6.38;3.60;;;2.40;99.90;;;;;;4996807;28;20078;-66
2024/01/21 07:16:13;;;;;;;5.20;3.58;;;2.40;99.90;;;;;;4997473;28;20031;-68
2024/01/21 07:18:39;;;;;;;6.57;3.70;;;2.40;1.00;;;;;;4997668;28;20036;-66
2024/01/21 07:21:04;;;;;;;6.55;3.13;;;2.40;1.00;;;;;;4996741;28;20093;-68
2024/01/21 07:23:30;;;;;;;5.90;3.88;;;2.40;1.00;;;;;;4997344;28;20085;-66
2024/01/21 07:25:57;;;;;;;6.45;3.65;;;2.40;1.00;;;;;;4997424;28;20034;-66
2024/01/21 07:28:23;;;;;;;7.53;3.55;;;2.40;1.00;;;;;;4997386;28;20038;-67
2024/01/21 07:30:48;;;;;;;5.60;3.80;;;2.30;1.00;;;;;;4996567;28;20287;-66
2024/01/21 07:33:14;;;;;;;5.65;3.45;;;2.40;26.20;;;;;;4997522;28;20047;-67
2024/01/21 07:35:40;;;;;;;6.63;3.65;;;2.40;99.90;;;;;;4997560;28;20089;-67
2024/01/21 07:38:06;;;;;;;7.95;4.18;;;2.50;99.90;;;;;;4996603;28;20027;-67
2024/01/21 07:40:32;;;;;;;5.53;3.25;;;2.50;99.90;;;;;;4997220;28;20046;-69
2024/01/21 07:42:58;;;;;;;5.82;3.80;;;2.60;99.90;;;;;;4980559;28;20353;-67
2024/01/21 07:45:23;;;;;;;5.93;3.40;;;2.60;99.90;;;;;;4996393;28;20026;-66
2024/01/21 07:47:50;;;;;;;6.30;3.72;;;2.60;1.00;;;;;;4997287;28;20125;-65
2024/01/21 07:50:16;;;;;;;5.95;3.58;;;2.60;1.00;;;;;;4996377;28;20140;-66
2024/01/21 07:52:45;;;;;;;5.95;3.33;;;2.70;1.00;;;;;;4996711;28;20069;-65
2024/01/21 07:55:11;;;;;;;7.57;3.80;;;2.70;1.00;;;;;;4996977;28;20109;-65
2024/01/21 07:57:40;;;;;;;5.70;3.47;;;2.60;1.00;;;;;;4996658;28;20118;-64
2024/01/21 08:00:09;;;;;;;5.70;3.67;;;2.60;1.00;;;;;;4996552;28;20039;-67
2024/01/21 08:02:35;;;;;;;5.68;4.30;;;2.70;1.00;;;;;;4996897;28;20141;-65
2024/01/21 08:05:01;;;;;;;7.32;4.22;;;2.70;1.00;;;;;;4997015;28;20110;-64
2024/01/21 08:07:27;;;;;;;6.32;4.00;;;2.70;1.00;;;;;;4996001;28;20027;-65
2024/01/21 08:09:53;;;;;;;5.72;3.80;;;2.70;1.00;;;;;;5012494;28;20290;-67
2024/01/21 08:12:18;;;;;;;7.57;4.15;;;2.70;1.00;;;;;;4996915;28;20038;-64
2024/01/21 08:14:44;;;;;;;6.05;4.00;;;2.70;1.00;;;;;;4997054;28;20039;-67
2024/01/21 08:17:10;;;;;;;6.80;3.92;;;2.70;1.00;;;;;;4996919;28;20077;-65
2024/01/21 08:19:38;;;;;;;6.47;4.38;;;2.70;1.00;;;;;;4996117;28;20062;-66
2024/01/21 08:22:04;;;;;;;6.88;3.55;;;2.80;1.00;;;;;;4996914;28;20279;-66
2024/01/21 08:24:30;;;;;;;6.22;4.47;;;2.80;1.00;;;;;;4996964;28;20030;-66
2024/01/21 08:26:57;;;;;;;6.75;4.25;;;2.90;1.00;;;;;;4998742;28;20038;-67
2024/01/21 08:29:23;;;;;;;7.97;4.28;;;2.80;1.00;;;;;;5000426;28;20034;-68
2024/01/21 08:31:49;;;;;;;6.78;4.20;;;2.80;1.00;;;;;;4999701;28;20421;-65
2024/01/21 08:34:15;;;;;;;7.25;4.10;;;2.80;1.00;;;;;;5000286;28;20317;-66
2024/01/21 08:36:41;;;;;;;5.90;4.28;;;2.90;1.00;;;;;;5000336;28;20108;-67
2024/01/21 08:39:09;;;;;;;9.75;4.20;;;2.90;1.00;;;;;;4999517;28;20038;-65
2024/01/21 08:41:35;;;;;;;6.57;3.83;;;2.90;3.50;;;;;;5000337;28;20307;-67
2024/01/21 08:44:02;;;;;;;9.32;4.63;;;2.90;23.50;;;;;;5000203;28;20355;-66
2024/01/21 08:46:28;;;;;;;8.93;4.40;;;2.80;35.70;;;;;;4999523;28;20041;-69
2024/01/21 08:48:54;;;;;;;9.73;4.40;;;2.80;55.10;;;;;;4983315;28;20349;-66
2024/01/21 08:51:20;;;;;;;8.40;4.68;;;2.80;74.80;;;;;;4999541;28;20034;-65
2024/01/21 08:53:45;;;;;;;7.95;3.75;;;2.80;90.50;;;;;;4999202;28;20067;-66
2024/01/21 08:56:12;;;;;;;5.63;3.67;;;2.90;93.20;;;;;;4999856;28;20275;-65
2024/01/21 08:58:38;;;;;;;7.57;4.22;;;2.90;95.80;;;;;;4999807;28;20121;-65
2024/01/21 09:01:04;;;;;;;8.73;4.80;;;2.90;99.90;;;;;;4999163;28;20121;-65
2024/01/21 09:03:30;;;;;;;8.18;4.57;;;2.90;99.90;;;;;;4999807;28;20023;-67
2024/01/21 09:05:56;;;;;;;5.72;3.92;;;3.00;99.90;;;;;;5000149;28;20402;-66
2024/01/21 09:08:22;;;;;;;6.85;5.07;;;3.00;99.90;;;;;;4998853;28;20034;-66
2024/01/21 09:10:48;;;;;;;9.93;4.68;;;3.00;99.90;;;;;;4982821;28;20364;-67
2024/01/21 09:13:15;;;;;;;6.07;4.10;;;3.00;99.90;;;;;;5015509;28;20153;-68
2024/01/21 09:15:41;;;;;;;9.18;4.95;;;3.10;99.90;;;;;;4998937;28;20057;-66
2024/01/21 09:18:07;;;;;;;7.85;4.57;;;3.10;99.90;;;;;;4999562;28;20041;-66
2024/01/21 09:20:33;;;;;;;7.85;4.82;;;3.10;99.90;;;;;;4998668;28;20030;-68
2024/01/21 09:23:01;;;;;;;6.85;4.47;;;3.20;99.90;;;;;;4999364;28;20046;-65
2024/01/21 09:25:27;;;;;;;7.63;4.20;;;3.20;99.90;;;;;;4998803;28;20062;-66
2024/01/21 09:27:52;;;;;;;8.55;4.50;;;3.20;99.90;;;;;;4998629;28;20390;-69
2024/01/21 09:30:18;;;;;;;8.48;4.78;;;3.30;99.90;;;;;;4998524;28;20038;-67
2024/01/21 09:32:44;;;;;;;7.72;4.95;;;3.40;99.90;;;;;;4998342;28;20069;-67
2024/01/21 09:35:10;;;;;;;8.00;4.57;;;3.40;97.70;;;;;;4999451;28;20046;-66
2024/01/21 09:37:36;;;;;;;6.10;4.40;;;3.40;97.20;;;;;;4998000;28;20034;-65
2024/01/21 09:40:03;;;;;;;13.25;5.55;;;3.40;96.90;;;;;;4998432;28;20306;-67
2024/01/21 09:42:29;;;;;;;8.75;4.65;;;3.50;93.40;;;;;;4998425;28;20109;-68
2024/01/21 09:44:55;;;;;;;8.50;4.97;;;3.50;92.30;;;;;;4998520;28;20034;-66
2024/01/21 09:47:21;;;;;;;6.57;4.40;;;3.50;91.00;;;;;;4999025;28;20050;-67
2024/01/21 09:49:47;;;;;;;10.52;4.60;;;3.60;88.70;;;;;;4998312;28;20038;-68
2024/01/21 09:52:15;;;;;;;7.75;5.07;;;3.70;80.50;;;;;;4982100;28;20046;-66
2024/01/21 09:54:40;;;;;;;7.28;4.68;;;3.70;69.80;;;;;;4998577;28;20030;-68
2024/01/21 09:57:09;;;;;;;7.75;4.55;;;3.80;64.80;;;;;;4998048;28;20096;-66
2024/01/21 09:59:35;;;;;;;5.65;4.25;;;3.90;55.50;;;;;;4997858;28;20038;-66
2024/01/21 10:02:01;;;;;;;7.38;4.47;;;3.90;52.70;;;;;;4998690;28;20391;-66
2024/01/21 10:04:27;;;;;;;6.32;4.13;;;4.00;45.90;;;;;;4997971;28;20132;-67
2024/01/21 10:06:55;;;;;;;8.15;4.85;;;4.10;38.60;;;;;;4998733;28;20109;-64
2024/01/21 10:09:22;;;;;;;6.38;4.60;;;4.10;32.80;;;;;;5014339;28;20101;-66
2024/01/21 10:11:56;;;;;;;7.47;4.50;;;4.10;27.10;;;;;;4965514;28;20026;-67
2024/01/21 10:14:26;;;;;;;7.20;4.75;;;4.20;27.80;;;;;;4998425;28;20402;-67
2024/01/21 10:16:53;;;;;;;6.60;4.45;;;4.30;23.90;;;;;;4998772;28;20089;-67
2024/01/21 10:19:46;;;;;;;6.65;4.22;;;4.40;21.10;;;;;;4997708;28;20038;-67
2024/01/21 10:22:18;;;;;;;8.02;4.30;;;4.50;8.20;;;;;;4996376;28;20046;-66
2024/01/21 10:24:45;;;;;;;;;;;4.50;13.40;;;;;;4998896;28;20100;-68
2024/01/21 10:27:12;;;;;;;7.35;4.28;;;4.60;8.20;;;;;;4998179;28;19953;-71
2024/01/21 10:29:43;;;;;;;5.28;3.97;;;4.50;5.60;;;;;;4998147;28;20065;-68
2024/01/21 10:32:10;;;;;;;6.40;4.15;;;4.50;7.00;;;;;;4997299;28;20065;-68
2024/01/21 10:34:49;;;;;;;6.38;4.05;;;4.60;1.90;;;;;;4997353;28;20121;-69
2024/01/21 10:37:15;;;;;;;10.20;4.30;;;4.50;2.50;;;;;;4998157;28;20034;-68
2024/01/21 10:39:48;;;;;;;5.35;3.28;;;4.60;2.40;;;;;;4997242;28;20022;-68
2024/01/21 10:42:15;;;;;;;6.97;4.47;;;4.50;4.00;;;;;;4997726;28;20402;-65
2024/01/21 10:44:42;;;;;;;6.60;4.15;;;4.60;5.00;;;;;;4997981;28;20030;-66
2024/01/21 10:47:09;;;;;;;8.80;4.20;;;4.60;1.00;;;;;;4998104;28;20030;-68
2024/01/21 10:49:35;;;;;;;7.35;4.18;;;4.60;2.70;;;;;;4997502;28;20109;-65
2024/01/21 10:52:02;;;;;;;5.60;4.00;;;4.60;1.00;;;;;;4997150;28;20117;-69
2024/01/21 10:54:28;;;;;;;6.10;4.10;;;4.70;1.00;;;;;;4997190;28;20092;-66
2024/01/21 10:56:54;;;;;;;6.13;3.20;;;4.70;1.00;;;;;;4997290;28;20069;-67
2024/01/21 10:59:21;;;;;;;6.25;4.13;;;4.70;1.00;;;;;;4997503;28;20382;-66
2024/01/21 11:01:48;;;;;;;10.48;4.38;;;4.70;1.20;;;;;;4997247;28;20050;-66
2024/01/21 11:04:14;;;;;;;7.65;3.90;;;4.70;3.80;;;;;;4997539;28;20030;-62
2024/01/21 11:06:44;;;;;;;7.72;4.47;;;4.70;16.50;;;;;;4997499;28;20037;-64
2024/01/21 11:09:10;;;;;;;7.38;4.30;;;4.80;1.00;;;;;;4997491;28;20015;-66
2024/01/21 11:11:56;;;;;;;6.00;3.83;;;4.80;1.00;;;;;;4997435;28;20061;-65
2024/01/21 11:14:39;;;;;;;5.93;4.53;;;4.90;1.00;;;;;;4997323;28;20050;-65
2024/01/21 11:17:06;;;;;;;;;;;5.00;1.00;;;;;;4981382;28;20053;-66
2024/01/21 11:19:51;;;;;;;6.15;3.90;;;5.00;6.10;;;;;;5013057;28;19910;-66
2024/01/21 11:22:23;;;;;;;7.20;4.00;;;4.90;13.60;;;;;;4997600;28;20033;-67
2024/01/21 11:24:51;;;;;;;;;;;4.90;18.60;;;;;;4997872;28;20022;-65
2024/01/21 11:27:25;;;;;;;5.65;4.18;;;5.00;22.20;;;;;;4997285;28;19971;-66
2024/01/21 11:29:56;;;;;;;6.82;4.30;;;5.00;21.00;;;;;;4997569;28;20026;-65
2024/01/21 11:32:30;;;;;;;7.97;3.95;;;5.10;20.50;;;;;;4996555;28;20426;-66
2024/01/21 11:35:05;;;;;;;6.57;4.13;;;5.10;24.60;;;;;;4996939;28;20038;-65
2024/01/21 11:37:31;;;;;;;6.28;3.90;;;5.10;33.50;;;;;;4997332;28;20301;-65
2024/01/21 11:40:00;;;;;;;6.57;4.05;;;5.20;29.60;;;;;;4997031;28;20038;-65
2024/01/21 11:42:26;;;;;;;6.78;3.72;;;5.30;30.30;;;;;;4997193;28;20030;-67
2024/01/21 11:45:04;;;;;;;6.85;3.95;;;5.10;45.10;;;;;;4996725;28;20038;-69
2024/01/21 11:47:31;;;;;;;5.57;4.03;;;5.10;54.60;;;;;;4996536;28;20034;-65
2024/01/21 11:50:00;;;;;;;6.55;4.70;;;5.20;56.80;;;;;;4997393;28;20043;-65
2024/01/21 11:52:26;;;;;;;6.30;3.78;;;5.10;58.10;;;;;;4997067;28;20117;-67
2024/01/21 11:54:51;;;;;;;6.07;4.10;;;5.20;61.00;;;;;;4997159;28;20118;-69
2024/01/21 11:57:19;;;;;;;7.80;4.47;;;5.30;58.10;;;;;;4997520;28;20050;-67
2024/01/21 11:59:45;;;;;;;6.15;4.25;;;5.30;48.60;;;;;;4997243;28;20121;-65
2024/01/21 12:02:11;;;;;;;7.55;4.57;;;5.30;49.40;;;;;;4999883;28;20097;-66
2024/01/21 12:04:38;;;;;;;5.10;3.85;;;5.30;45.30;;;;;;5000173;28;20305;-65
2024/01/21 12:07:04;;;;;;;6.75;4.38;;;5.30;49.20;;;;;;5000920;28;20105;-65
2024/01/21 12:09:31;;;;;;;6.93;4.38;;;5.30;54.60;;;;;;5000067;28;20034;-64
2024/01/21 12:11:58;;;;;;;6.15;4.00;;;5.20;56.50;;;;;;5000845;28;20365;-67
2024/01/21 12:14:25;;;;;;;7.10;4.75;;;5.20;62.00;;;;;;4999990;28;20038;-63
2024/01/21 12:16:52;;;;;;;7.20;4.30;;;5.20;69.00;;;;;;5000131;28;20057;-66
2024/01/21 12:19:18;;;;;;;6.10;4.68;;;5.20;64.50;;;;;;4999958;28;20062;-67
2024/01/21 12:21:44;;;;;;;7.63;4.72;;;5.20;61.20;;;;;;5000547;28;20126;-63
2024/01/21 12:24:10;;;;;;;8.38;4.57;;;5.20;64.70;;;;;;5000541;28;20030;-64
2024/01/21 12:26:36;;;;;;;7.07;4.70;;;5.20;71.20;;;;;;5000372;28;20096;-66
2024/01/21 12:29:11;;;;;;;8.77;4.82;;;5.30;66.90;;;;;;5000322;28;20038;-64
2024/01/21 12:31:38;;;;;;;7.78;4.30;;;5.30;68.60;;;;;;4999474;28;20342;-66
2024/01/21 12:34:12;;;;;;;7.68;4.80;;;5.30;69.10;;;;;;4983374;28;20314;-64
2024/01/21 12:36:45;;;;;;;8.00;4.93;;;5.30;76.20;;;;;;4999644;28;20042;-67
2024/01/21 12:39:15;;;;;;;5.90;4.68;;;5.30;69.70;;;;;;5000354;28;20045;-65
2024/01/21 12:41:41;;;;;;;10.07;4.90;;;5.40;62.80;;;;;;5000282;28;20127;-65
2024/01/21 12:44:07;;;;;;;8.68;5.05;;;5.40;68.60;;;;;;4999479;28;20113;-67
2024/01/21 12:46:33;;;;;;;9.85;4.90;;;5.20;79.30;;;;;;4999614;28;20049;-65
2024/01/21 12:49:00;;;;;;;7.32;4.90;;;5.30;83.80;;;;;;5000129;28;20023;-66
2024/01/21 12:51:28;;;;;;;9.13;4.60;;;5.20;89.20;;;;;;4999229;28;20132;-67
2024/01/21 12:53:54;;;;;;;6.00;4.50;;;5.20;92.10;;;;;;5015527;28;20361;-65
2024/01/21 12:56:21;;;;;;;10.93;4.78;;;5.20;93.70;;;;;;4999260;28;20053;-66
2024/01/21 12:58:47;;;;;;;6.80;4.65;;;5.30;90.80;;;;;;4999156;28;20034;-63
2024/01/21 13:01:13;;;;;;;6.80;4.30;;;5.30;86.60;;;;;;4999884;28;20306;-64